createdAt,value
2017-10-15T00:01:30.412Z,14.10
2017-10-15T00:03:58.761Z,15.43
2017-10-15T00:06:26.733Z,14.03
2017-10-15T00:08:54.314Z,15.23
2017-10-15T00:11:22.698Z,15.83
2017-10-15T00:13:51.063Z,15.50
2017-10-15T00:16:19.438Z,19.83
2017-10-15T00:18:47.109Z,17.93
2017-10-15T00:21:15.468Z,17.60
2017-10-15T00:23:44.105Z,17.10
2017-10-15T00:26:11.690Z,18.70
2017-10-15T00:28:39.262Z,19.07
2017-10-15T00:31:07.132Z,18.00
2017-10-15T00:33:34.729Z,20.30
2017-10-15T00:36:03.090Z,18.67
2017-10-15T00:38:31.446Z,19.03
2017-10-15T00:40:59.454Z,22.70
2017-10-15T00:43:27.047Z,23.97
2017-10-15T00:45:54.642Z,24.10
2017-10-15T00:48:22.261Z,21.33
2017-10-15T00:50:49.890Z,23.53
2017-10-15T00:53:18.261Z,23.17
2017-10-15T00:55:46.589Z,20.83
2017-10-15T00:58:14.402Z,19.17
2017-10-15T01:00:42.751Z,20.07
2017-10-15T01:03:10.338Z,21.47
2017-10-15T01:05:38.704Z,18.37
2017-10-15T01:08:07.053Z,20.20
2017-10-15T01:10:34.657Z,19.23
2017-10-15T01:13:02.998Z,15.83
2017-10-15T01:15:31.197Z,21.27
2017-10-15T01:17:58.775Z,19.50
2017-10-15T01:20:27.161Z,19.00
2017-10-15T01:22:54.789Z,24.20
2017-10-15T01:25:22.374Z,17.80
2017-10-15T01:27:50.725Z,21.80
2017-10-15T01:30:18.306Z,18.47
2017-10-15T01:32:46.931Z,19.03
2017-10-15T01:35:14.533Z,18.90
2017-10-15T01:37:42.130Z,17.20
2017-10-15T01:40:09.725Z,16.27
2017-10-15T01:42:37.317Z,16.90
2017-10-15T01:45:04.963Z,15.30
2017-10-15T01:47:32.554Z,17.63
2017-10-15T01:50:01.187Z,18.83
2017-10-15T01:52:28.758Z,18.00
2017-10-15T01:54:56.360Z,15.10
2017-10-15T01:57:24.722Z,17.83
2017-10-15T01:59:52.330Z,17.50
2017-10-15T02:02:19.975Z,17.83
2017-10-15T02:04:47.608Z,17.10
2017-10-15T02:07:16.237Z,17.90
2017-10-15T02:09:43.839Z,18.17
2017-10-15T02:12:11.433Z,18.60
2017-10-15T02:14:39.325Z,19.40
2017-10-15T02:17:06.910Z,18.33
2017-10-15T02:19:34.501Z,18.20
2017-10-15T02:22:02.851Z,18.90
2017-10-15T02:24:30.713Z,19.27
2017-10-15T02:26:58.313Z,18.53
2017-10-15T02:29:25.871Z,19.23
2017-10-15T02:31:54.335Z,19.10
2017-10-15T02:34:22.688Z,20.70
2017-10-15T02:36:50.312Z,19.63
2017-10-15T02:39:17.885Z,19.70
2017-10-15T02:41:45.477Z,19.30
2017-10-15T02:44:13.093Z,20.20
2017-10-15T02:46:40.684Z,20.53
2017-10-15T02:49:08.274Z,19.97
2017-10-15T02:51:36.632Z,19.70
2017-10-15T02:54:04.267Z,19.87
2017-10-15T02:56:31.853Z,16.63
2017-10-15T02:58:59.807Z,20.47
2017-10-15T03:01:27.411Z,19.37
2017-10-15T03:03:55.018Z,18.50
2017-10-15T03:06:22.637Z,20.23
2017-10-15T03:08:50.979Z,17.40
2017-10-15T03:11:18.573Z,20.90
2017-10-15T03:13:46.252Z,15.93
2017-10-15T03:16:14.101Z,15.13
2017-10-15T03:18:42.439Z,15.67
2017-10-15T03:21:10.028Z,15.87
2017-10-15T03:23:38.435Z,16.40
2017-10-15T03:26:06.018Z,16.10
2017-10-15T03:28:33.638Z,15.97
2017-10-15T03:31:01.232Z,15.13
2017-10-15T03:33:29.097Z,15.57
2017-10-15T03:35:56.669Z,15.80
2017-10-15T03:38:24.255Z,16.40
2017-10-15T03:40:51.830Z,16.50
2017-10-15T03:43:20.231Z,16.57
2017-10-15T03:45:47.809Z,18.87
2017-10-15T03:48:15.382Z,19.57
2017-10-15T03:50:43.246Z,18.83
2017-10-15T03:53:10.874Z,19.53
2017-10-15T03:55:38.480Z,18.37
2017-10-15T03:58:06.103Z,20.73
2017-10-15T04:00:33.709Z,20.87
2017-10-15T04:03:01.318Z,18.00
2017-10-15T04:05:28.914Z,17.50
2017-10-15T04:07:56.785Z,16.83
2017-10-15T04:10:24.425Z,18.10
2017-10-15T04:12:52.013Z,15.77
2017-10-15T04:15:19.616Z,14.90
2017-10-15T04:17:47.209Z,15.03
2017-10-15T04:20:14.825Z,13.50
2017-10-15T04:22:43.171Z,14.30
2017-10-15T04:25:11.027Z,13.97
2017-10-15T04:27:38.642Z,15.00
2017-10-15T04:30:06.371Z,14.77
2017-10-15T04:32:34.733Z,16.90
2017-10-15T04:35:02.316Z,15.70
2017-10-15T04:37:30.697Z,18.37
2017-10-15T04:39:59.053Z,18.23
2017-10-15T04:42:27.009Z,19.50
2017-10-15T04:44:54.607Z,18.43
2017-10-15T04:47:22.961Z,18.47
2017-10-15T04:49:50.601Z,17.33
2017-10-15T04:52:18.271Z,21.57
2017-10-15T04:54:45.874Z,20.10
2017-10-15T04:57:14.218Z,20.60
2017-10-15T04:59:42.170Z,23.10
2017-10-15T05:02:09.804Z,19.07
2017-10-15T05:04:37.377Z,18.43
2017-10-15T05:07:04.974Z,19.40
2017-10-15T05:09:32.614Z,17.37
2017-10-15T05:12:00.457Z,20.20
2017-10-15T05:14:28.036Z,18.53
2017-10-15T05:16:55.630Z,19.80
2017-10-15T05:19:23.285Z,21.80
2017-10-15T05:21:50.866Z,21.90
2017-10-15T05:24:18.477Z,19.57
2017-10-15T05:26:46.094Z,18.17
2017-10-15T05:29:13.955Z,18.33
2017-10-15T05:31:42.301Z,18.30
2017-10-15T05:34:09.919Z,18.80
2017-10-15T05:36:37.520Z,16.53
2017-10-15T05:39:05.519Z,20.17
2017-10-15T05:41:33.862Z,16.67
2017-10-15T05:44:01.437Z,16.23
2017-10-15T05:46:29.046Z,15.60
2017-10-15T05:48:56.666Z,16.40
2017-10-15T05:51:25.157Z,17.93
2017-10-15T05:53:53.514Z,15.97
2017-10-15T05:56:21.134Z,17.73
2017-10-15T05:58:48.718Z,17.60
2017-10-15T06:01:16.330Z,15.30
2017-10-15T06:03:43.910Z,16.93
2017-10-15T06:06:11.794Z,16.97
2017-10-15T06:08:39.432Z,16.90
2017-10-15T06:11:07.034Z,19.70
2017-10-15T06:13:34.651Z,18.83
2017-10-15T06:16:02.257Z,17.27
2017-10-15T06:18:29.870Z,15.50
2017-10-15T06:20:57.438Z,16.63
2017-10-15T06:23:25.430Z,17.83
2017-10-15T06:25:53.073Z,17.13
2017-10-15T06:28:21.417Z,16.50
2017-10-15T06:30:49.037Z,15.70
2017-10-15T06:33:16.661Z,16.50
2017-10-15T06:35:45.022Z,15.80
2017-10-15T06:38:12.608Z,14.27
2017-10-15T06:40:40.214Z,15.03
2017-10-15T06:43:07.785Z,15.33
2017-10-15T06:45:36.725Z,15.07
2017-10-15T06:48:04.437Z,15.93
2017-10-15T06:50:32.799Z,14.07
2017-10-15T06:53:00.413Z,13.53
2017-10-15T06:55:27.961Z,12.57
2017-10-15T06:57:55.631Z,13.10
2017-10-15T07:00:23.203Z,12.60
2017-10-15T07:02:51.079Z,13.97
2017-10-15T07:05:18.718Z,11.77
2017-10-15T07:07:46.298Z,12.97
2017-10-15T07:10:13.911Z,10.00
2017-10-15T07:12:42.283Z,11.77
2017-10-15T07:15:10.671Z,10.70
2017-10-15T07:17:39.035Z,10.40
2017-10-15T07:20:06.634Z,10.70
2017-10-15T07:22:34.231Z,11.83
2017-10-15T07:25:01.894Z,11.27
2017-10-15T07:27:29.469Z,13.10
2017-10-15T07:29:58.092Z,10.50
2017-10-15T07:32:25.670Z,10.47
2017-10-15T07:34:53.215Z,12.80
2017-10-15T07:37:20.834Z,10.10
2017-10-15T07:39:49.190Z,9.33
2017-10-15T07:42:17.110Z,10.73
2017-10-15T07:44:44.721Z,9.87
2017-10-15T07:47:12.670Z,9.70
2017-10-15T07:49:40.255Z,10.40
2017-10-15T07:52:07.837Z,9.57
2017-10-15T07:54:36.576Z,9.60
2017-10-15T07:57:04.219Z,9.87
2017-10-15T07:59:31.807Z,10.30
2017-10-15T08:01:59.421Z,9.90
2017-10-15T08:04:27.036Z,10.13
2017-10-15T08:06:54.643Z,9.50
2017-10-15T08:09:22.255Z,9.90
2017-10-15T08:11:50.205Z,10.50
2017-10-15T08:14:17.818Z,9.10
2017-10-15T08:16:46.173Z,8.20
2017-10-15T08:19:13.795Z,7.33
2017-10-15T08:21:41.414Z,8.77
2017-10-15T08:24:09.817Z,9.33
2017-10-15T08:26:37.409Z,9.03
2017-10-15T08:29:05.267Z,9.20
2017-10-15T08:31:32.846Z,8.50
2017-10-15T08:34:00.504Z,7.77
2017-10-15T08:36:28.129Z,6.90
2017-10-15T08:38:55.724Z,7.53
2017-10-15T08:41:23.882Z,7.23
2017-10-15T08:43:51.490Z,7.17
2017-10-15T08:46:19.875Z,7.43
2017-10-15T08:48:48.269Z,7.10
2017-10-15T08:51:15.850Z,6.17
2017-10-15T08:53:43.540Z,6.67
2017-10-15T08:56:11.120Z,7.10
2017-10-15T08:58:39.486Z,6.60
2017-10-15T09:01:07.082Z,6.37
2017-10-15T09:03:34.965Z,6.43
2017-10-15T09:06:02.557Z,6.37
2017-10-15T09:08:30.284Z,5.90
2017-10-15T09:10:57.902Z,5.83
2017-10-15T09:13:26.320Z,6.10
2017-10-15T09:15:54.197Z,5.70
2017-10-15T09:18:21.774Z,5.93
2017-10-15T09:20:49.318Z,6.13
2017-10-15T09:23:17.275Z,6.10
2017-10-15T09:25:44.860Z,6.50
2017-10-15T09:28:12.744Z,5.90
2017-10-15T09:30:40.342Z,5.67
2017-10-15T09:33:07.956Z,5.83
2017-10-15T09:35:35.581Z,6.23
2017-10-15T09:38:03.199Z,6.17
2017-10-15T09:40:31.898Z,5.40
2017-10-15T09:43:00.326Z,7.00
2017-10-15T09:45:28.172Z,5.20
2017-10-15T09:47:55.766Z,6.90
2017-10-15T09:50:23.402Z,5.07
2017-10-15T09:52:51.040Z,5.95
2017-10-15T09:55:18.634Z,5.12
2017-10-15T09:57:46.546Z,5.30
2017-10-15T10:00:14.909Z,4.80
2017-10-15T10:02:42.556Z,5.35
2017-10-15T10:05:10.171Z,5.82
2017-10-15T10:07:37.761Z,5.57
2017-10-15T10:10:05.375Z,5.20
2017-10-15T10:12:33.722Z,4.95
2017-10-15T10:15:01.664Z,5.00
2017-10-15T10:17:29.264Z,5.20
2017-10-15T10:19:56.964Z,5.47
2017-10-15T10:22:25.029Z,6.20
2017-10-15T10:24:52.651Z,6.55
2017-10-15T10:27:20.275Z,6.60
2017-10-15T10:29:47.882Z,7.20
2017-10-15T10:32:15.855Z,7.13
2017-10-15T10:34:44.227Z,6.90
2017-10-15T10:37:12.615Z,6.40
2017-10-15T10:39:40.259Z,7.17
2017-10-15T10:42:08.005Z,6.30
2017-10-15T10:44:35.597Z,7.60
2017-10-15T10:47:04.827Z,7.10
2017-10-15T10:49:32.693Z,6.80
2017-10-15T10:52:00.307Z,7.37
2017-10-15T10:54:27.913Z,6.97
2017-10-15T10:56:55.532Z,8.20
2017-10-15T10:59:23.120Z,7.00
2017-10-15T11:01:50.853Z,7.67
2017-10-15T11:04:18.457Z,8.07
2017-10-15T11:06:46.075Z,7.80
2017-10-15T11:09:14.444Z,7.20
2017-10-15T11:11:42.479Z,8.47
2017-10-15T11:14:10.888Z,7.27
2017-10-15T11:16:38.511Z,7.70
2017-10-15T11:19:06.111Z,6.83
2017-10-15T11:21:33.718Z,7.73
2017-10-15T11:24:01.313Z,7.60
2017-10-15T11:26:28.901Z,7.30
2017-10-15T11:28:56.845Z,8.17
2017-10-15T11:31:24.470Z,7.97
2017-10-15T11:33:52.076Z,7.77
2017-10-15T11:36:19.704Z,8.00
2017-10-15T11:38:47.323Z,7.67
2017-10-15T11:41:14.916Z,7.40
2017-10-15T11:43:43.291Z,7.90
2017-10-15T11:46:11.221Z,7.33
2017-10-15T11:48:39.642Z,7.77
2017-10-15T11:51:07.241Z,7.17
2017-10-15T11:53:34.865Z,7.33
2017-10-15T11:56:02.482Z,7.93
2017-10-15T11:58:30.085Z,7.43
2017-10-15T12:00:58.257Z,7.60
2017-10-15T12:03:26.160Z,6.50
2017-10-15T12:05:53.780Z,7.67
2017-10-15T12:08:21.356Z,6.33
2017-10-15T12:10:49.009Z,7.17
2017-10-15T12:13:16.623Z,7.17
2017-10-15T12:15:44.578Z,7.10
2017-10-15T12:18:12.259Z,6.83
2017-10-15T12:20:40.668Z,7.57
2017-10-15T12:23:09.015Z,7.30
2017-10-15T12:25:37.390Z,6.40
2017-10-15T12:28:06.158Z,6.67
2017-10-15T12:30:33.769Z,5.73
2017-10-15T12:33:01.358Z,6.30
2017-10-15T12:35:28.946Z,6.70
2017-10-15T12:37:56.576Z,6.23
2017-10-15T12:40:24.154Z,6.13
2017-10-15T12:42:51.722Z,6.37
2017-10-15T12:45:19.662Z,6.50
2017-10-15T12:47:47.299Z,5.73
2017-10-15T12:50:14.967Z,6.40
2017-10-15T12:52:42.589Z,6.20
2017-10-15T12:55:10.966Z,7.13
2017-10-15T12:57:39.338Z,6.13
2017-10-15T13:00:06.960Z,5.80
2017-10-15T13:02:34.825Z,5.63
2017-10-15T13:05:03.233Z,5.80
2017-10-15T13:07:30.846Z,6.47
2017-10-15T13:09:58.448Z,6.00
2017-10-15T13:12:26.079Z,6.47
2017-10-15T13:14:53.696Z,5.83
2017-10-15T13:17:22.080Z,6.67
2017-10-15T13:19:50.821Z,6.53
2017-10-15T13:22:19.366Z,6.20
2017-10-15T13:24:47.041Z,6.07
2017-10-15T13:27:14.734Z,5.87
2017-10-15T13:29:42.355Z,6.73
2017-10-15T13:32:09.979Z,5.90
2017-10-15T13:34:38.323Z,6.07
2017-10-15T13:37:05.960Z,5.80
2017-10-15T13:39:33.559Z,6.00
2017-10-15T13:42:01.234Z,6.30
2017-10-15T13:44:28.850Z,6.33
2017-10-15T13:46:56.445Z,6.80
2017-10-15T13:49:24.009Z,6.47
2017-10-15T13:51:52.005Z,6.47
2017-10-15T13:54:19.634Z,5.97
2017-10-15T13:56:47.226Z,7.10
2017-10-15T13:59:15.582Z,6.17
2017-10-15T14:01:43.968Z,5.70
2017-10-15T14:04:12.391Z,6.20
2017-10-15T14:06:39.978Z,6.17
2017-10-15T14:09:07.923Z,7.10
2017-10-15T14:11:35.513Z,7.00
2017-10-15T14:14:03.331Z,6.40
2017-10-15T14:16:30.941Z,6.47
2017-10-15T14:18:58.531Z,6.67
2017-10-15T14:21:27.279Z,6.43
2017-10-15T14:23:54.905Z,6.77
2017-10-15T14:26:22.503Z,8.10
2017-10-15T14:28:50.106Z,7.33
2017-10-15T14:31:17.844Z,8.10
2017-10-15T14:33:45.435Z,6.90
2017-10-15T14:36:13.020Z,7.40
2017-10-15T14:38:40.712Z,7.03
2017-10-15T14:41:08.297Z,7.63
2017-10-15T14:43:36.915Z,7.33
2017-10-15T14:46:04.512Z,7.70
2017-10-15T14:48:34.172Z,7.30
2017-10-15T14:51:02.501Z,6.80
2017-10-15T14:53:30.135Z,7.93
2017-10-15T14:55:57.798Z,7.57
2017-10-15T14:58:25.619Z,7.30
2017-10-15T15:00:54.494Z,7.60
2017-10-15T15:03:22.900Z,7.77
2017-10-15T15:05:50.510Z,7.73
2017-10-15T15:08:18.158Z,7.97
2017-10-15T15:10:45.759Z,8.33
2017-10-15T15:13:14.540Z,8.50
2017-10-15T15:15:42.939Z,7.50
2017-10-15T15:18:10.551Z,7.70
2017-10-15T15:20:38.159Z,7.60
2017-10-15T15:23:06.543Z,8.03
2017-10-15T15:25:34.153Z,8.40
2017-10-15T15:28:01.757Z,8.40
2017-10-15T15:30:30.177Z,8.50
2017-10-15T15:32:57.785Z,8.20
2017-10-15T15:35:26.542Z,8.20
2017-10-15T15:37:54.195Z,7.90
2017-10-15T15:40:34.850Z,9.40
2017-10-15T15:43:02.535Z,7.73
2017-10-15T15:45:31.173Z,9.10
2017-10-15T15:47:58.789Z,7.83
2017-10-15T15:50:26.445Z,9.90
2017-10-15T15:52:54.111Z,10.00
2017-10-15T15:55:21.753Z,8.67
2017-10-15T15:57:49.657Z,9.43
2017-10-15T16:00:18.048Z,9.10
2017-10-15T16:02:45.787Z,10.10
2017-10-15T16:05:13.530Z,9.17
2017-10-15T16:07:41.198Z,10.10
2017-10-15T16:10:08.866Z,9.20
2017-10-15T16:12:36.524Z,10.13
2017-10-15T16:15:04.447Z,13.50
2017-10-15T16:17:32.105Z,16.20
2017-10-15T16:19:59.745Z,13.00
2017-10-15T16:22:28.291Z,12.07
2017-10-15T16:24:55.916Z,11.27
2017-10-15T16:27:23.654Z,12.20
2017-10-15T16:29:51.279Z,10.90
2017-10-15T16:32:19.244Z,10.20
2017-10-15T16:34:46.874Z,10.30
2017-10-15T16:37:14.506Z,11.17
2017-10-15T16:39:42.142Z,11.90
2017-10-15T16:42:10.626Z,11.30
2017-10-15T16:44:38.298Z,11.00
2017-10-15T16:47:07.564Z,12.10
2017-10-15T16:49:36.286Z,11.20
2017-10-15T16:52:04.684Z,10.57
2017-10-15T16:54:32.555Z,13.43
2017-10-15T16:57:01.188Z,12.63
2017-10-15T16:59:28.998Z,12.10
2017-10-15T17:01:56.709Z,12.00
2017-10-15T17:04:24.463Z,12.77
2017-10-15T17:06:52.523Z,11.73
2017-10-15T17:09:20.324Z,12.43
2017-10-15T17:11:48.004Z,12.87
2017-10-15T17:14:16.404Z,13.07
2017-10-15T17:16:44.397Z,12.20
2017-10-15T17:19:12.178Z,13.90
2017-10-15T17:21:40.368Z,14.47
2017-10-15T17:24:08.400Z,12.80
2017-10-15T17:26:36.057Z,14.20
2017-10-15T17:29:04.312Z,13.63
2017-10-15T17:31:32.137Z,14.33
2017-10-15T17:33:59.735Z,12.50
2017-10-15T17:36:27.584Z,13.80
2017-10-15T17:38:56.001Z,13.40
2017-10-15T17:41:23.728Z,15.67
2017-10-15T17:43:53.047Z,14.90
2017-10-15T17:46:20.713Z,24.53
2017-10-15T17:48:52.307Z,17.67
2017-10-15T17:51:35.199Z,13.27
2017-10-15T17:54:04.541Z,13.70
2017-10-15T17:56:32.574Z,14.53
2017-10-15T17:59:00.979Z,13.80
2017-10-15T18:01:32.230Z,15.93
2017-10-15T18:04:02.368Z,15.07
2017-10-15T18:06:30.820Z,13.77
2017-10-15T18:08:58.418Z,16.90
2017-10-15T18:13:59.755Z,13.00
2017-10-15T18:16:27.413Z,13.70
2017-10-15T18:18:55.047Z,13.43
2017-10-15T18:21:22.652Z,13.60
2017-10-15T18:23:50.296Z,15.00
2017-10-15T18:26:17.890Z,16.60
2017-10-15T18:28:53.156Z,16.43
2017-10-15T18:31:20.774Z,19.17
2017-10-15T18:33:49.134Z,18.10
2017-10-15T18:36:16.855Z,17.53
2017-10-15T18:38:44.440Z,18.03
2017-10-15T18:41:16.250Z,18.77
2017-10-15T18:43:43.815Z,17.53
2017-10-15T18:46:11.423Z,17.43
2017-10-15T18:48:39.176Z,16.30
2017-10-15T18:51:06.970Z,16.40
2017-10-15T18:53:34.602Z,15.90
2017-10-15T18:56:02.199Z,16.70
2017-10-15T18:58:30.210Z,16.90
2017-10-15T19:00:57.891Z,17.77
2017-10-15T19:03:25.605Z,17.40
2017-10-15T19:05:54.016Z,16.33
2017-10-15T19:08:21.722Z,17.80
2017-10-15T19:10:49.663Z,16.80
2017-10-15T19:13:17.365Z,15.23
2017-10-15T19:15:45.110Z,17.60
2017-10-15T19:18:12.785Z,17.83
2017-10-15T19:20:40.473Z,17.50
2017-10-15T19:23:08.594Z,18.10
2017-10-15T19:25:36.181Z,20.07
2017-10-15T19:28:04.533Z,17.83
2017-10-15T19:30:33.773Z,19.70
2017-10-15T19:33:01.601Z,16.47
2017-10-15T19:35:29.216Z,17.20
2017-10-15T19:37:56.847Z,17.83
2017-10-15T19:40:24.771Z,18.17
2017-10-15T19:42:52.512Z,19.67
2017-10-15T19:45:20.100Z,20.50
2017-10-15T19:47:47.695Z,18.20
2017-10-15T19:50:15.362Z,18.60
2017-10-15T19:52:43.051Z,16.50
2017-10-15T19:55:10.705Z,16.53
2017-10-15T19:57:39.114Z,15.93
2017-10-15T20:00:06.788Z,16.17
2017-10-15T20:02:34.380Z,16.03
2017-10-15T20:05:03.049Z,17.93
2017-10-15T20:07:30.950Z,17.33
2017-10-15T20:09:58.638Z,17.03
2017-10-15T20:12:26.269Z,18.23
2017-10-15T20:14:54.618Z,18.43
2017-10-15T20:17:22.529Z,18.13
2017-10-15T20:19:50.182Z,17.60
2017-10-15T20:22:18.116Z,16.00
2017-10-15T20:24:45.740Z,17.43
2017-10-15T20:27:13.374Z,17.53
2017-10-15T20:29:41.031Z,17.80
2017-10-15T20:32:08.654Z,19.33
2017-10-15T20:34:36.545Z,17.67
2017-10-15T20:37:04.203Z,17.03
2017-10-15T20:39:32.180Z,19.13
2017-10-15T20:41:59.762Z,18.77
2017-10-15T20:44:27.361Z,18.07
2017-10-15T20:46:55.770Z,18.10
2017-10-15T20:49:23.383Z,16.73
2017-10-15T20:51:51.620Z,17.07
2017-10-15T20:54:19.225Z,18.03
2017-10-15T20:56:46.929Z,19.80
2017-10-15T20:59:15.370Z,18.10
2017-10-15T21:01:43.034Z,19.20
2017-10-15T21:04:10.649Z,19.50
2017-10-15T21:06:38.261Z,19.17
2017-10-15T21:09:05.895Z,17.63
2017-10-15T21:11:33.545Z,18.20
2017-10-15T21:14:01.172Z,17.60
2017-10-15T21:16:28.852Z,18.53
2017-10-15T21:18:56.472Z,18.40
2017-10-15T21:21:24.076Z,17.60
2017-10-15T21:23:51.739Z,18.97
2017-10-15T21:26:19.324Z,17.73
2017-10-15T21:28:46.934Z,18.20
2017-10-15T21:31:14.570Z,16.60
2017-10-15T21:33:42.196Z,17.53
2017-10-15T21:36:09.781Z,16.27
2017-10-15T21:38:37.398Z,18.13
2017-10-15T21:41:05.051Z,17.60
2017-10-15T21:43:33.559Z,19.30
2017-10-15T21:46:01.166Z,18.47
2017-10-15T21:48:28.770Z,16.80
2017-10-15T21:50:56.782Z,18.10
2017-10-15T21:53:24.378Z,18.70
2017-10-15T21:55:52.010Z,17.53
2017-10-15T21:58:19.613Z,19.40
2017-10-15T22:00:47.192Z,19.47
2017-10-15T22:03:14.814Z,16.53
2017-10-15T22:05:43.158Z,16.87
2017-10-15T22:08:10.743Z,17.00
2017-10-15T22:10:39.151Z,18.20
2017-10-15T22:13:06.753Z,15.93
2017-10-15T22:15:34.355Z,17.27
2017-10-15T22:18:02.711Z,16.40
2017-10-15T22:23:32.234Z,17.87
2017-10-15T22:25:59.846Z,17.83
2017-10-15T22:28:27.431Z,19.47
2017-10-15T22:30:55.034Z,19.27
2017-10-15T22:33:23.380Z,20.10
2017-10-15T22:35:51.016Z,19.80
2017-10-15T22:38:18.608Z,18.30
2017-10-15T22:40:46.223Z,19.83
2017-10-15T22:43:13.852Z,18.37
2017-10-15T22:45:42.276Z,18.50
2017-10-15T22:48:09.894Z,18.63
2017-10-15T22:50:38.255Z,19.30
2017-10-15T22:53:05.874Z,17.60
2017-10-15T22:55:33.470Z,17.00
2017-10-15T22:58:01.626Z,16.33
2017-10-15T23:00:29.254Z,16.87
2017-10-15T23:02:56.838Z,18.70
2017-10-15T23:05:24.470Z,17.10
2017-10-15T23:07:52.110Z,17.67
2017-10-15T23:10:20.470Z,17.07
2017-10-15T23:12:48.089Z,17.60
2017-10-15T23:15:15.658Z,16.03
2017-10-15T23:17:43.345Z,18.20
2017-10-15T23:20:10.949Z,16.37
2017-10-15T23:22:38.553Z,20.60
2017-10-15T23:25:06.138Z,17.93
2017-10-15T23:27:34.505Z,19.13
2017-10-15T23:30:02.079Z,18.67
2017-10-15T23:32:30.627Z,20.10
2017-10-15T23:34:58.198Z,20.80
2017-10-15T23:37:25.825Z,21.17
2017-10-15T23:39:53.451Z,20.97
2017-10-15T23:42:21.838Z,22.27
2017-10-15T23:44:49.456Z,18.97
2017-10-15T23:47:17.059Z,18.10
2017-10-15T23:49:44.662Z,17.17
2017-10-15T23:52:12.230Z,18.03
2017-10-15T23:54:40.194Z,19.40
2017-10-15T23:57:07.769Z,18.53
2017-10-15T23:59:35.359Z,19.20
